sensor_id;sensor_type;location;lat;lon;timestamp;P1;durP1;ratioP1;P2;durP2;ratioP2
66751;SDS011;53663;42.676;23.238;2022-12-29T00:02:02;62.17;;;31.23;;
66751;SDS011;53663;42.676;23.238;2022-12-29T00:04:28;58.38;;;30.50;;
66751;SDS011;53663;42.676;23.238;2022-12-29T00:06:53;68.88;;;32.53;;
66751;SDS011;53663;42.676;23.238;2022-12-29T00:09:19;62.13;;;31.77;;
66751;SDS011;53663;42.676;23.238;2022-12-29T00:11:45;59.35;;;30.35;;
66751;SDS011;53663;42.676;23.238;2022-12-29T00:14:11;56.65;;;26.38;;
66751;SDS011;53663;42.676;23.238;2022-12-29T00:16:56;49.95;;;26.85;;
66751;SDS011;53663;42.676;23.238;2022-12-29T00:19:22;63.75;;;34.70;;
66751;SDS011;53663;42.676;23.238;2022-12-29T00:22:08;50.83;;;27.35;;
66751;SDS011;53663;42.676;23.238;2022-12-29T00:24:53;51.55;;;26.10;;
66751;SDS011;53663;42.676;23.238;2022-12-29T00:27:38;53.97;;;24.50;;
66751;SDS011;53663;42.676;23.238;2022-12-29T00:30:22;52.10;;;25.25;;
66751;SDS011;53663;42.676;23.238;2022-12-29T00:33:16;49.05;;;27.02;;
66751;SDS011;53663;42.676;23.238;2022-12-29T00:36:06;45.80;;;24.52;;
66751;SDS011;53663;42.676;23.238;2022-12-29T00:38:38;51.47;;;23.58;;
66751;SDS011;53663;42.676;23.238;2022-12-29T00:41:26;52.55;;;23.83;;
66751;SDS011;53663;42.676;23.238;2022-12-29T00:44:11;47.40;;;23.58;;
66751;SDS011;53663;42.676;23.238;2022-12-29T00:46:39;54.33;;;24.10;;
66751;SDS011;53663;42.676;23.238;2022-12-29T00:49:07;46.53;;;22.88;;
66751;SDS011;53663;42.676;23.238;2022-12-29T00:51:52;47.83;;;21.70;;
66751;SDS011;53663;42.676;23.238;2022-12-29T00:54:19;42.97;;;20.77;;
66751;SDS011;53663;42.676;23.238;2022-12-29T00:56:45;41.08;;;20.83;;
66751;SDS011;53663;42.676;23.238;2022-12-29T00:59:12;38.13;;;18.70;;
66751;SDS011;53663;42.676;23.238;2022-12-29T01:01:38;35.42;;;18.63;;
66751;SDS011;53663;42.676;23.238;2022-12-29T01:04:04;39.65;;;20.52;;
66751;SDS011;53663;42.676;23.238;2022-12-29T01:06:30;35.70;;;18.95;;
66751;SDS011;53663;42.676;23.238;2022-12-29T01:08:57;37.38;;;20.40;;
66751;SDS011;53663;42.676;23.238;2022-12-29T01:11:41;34.45;;;18.67;;
66751;SDS011;53663;42.676;23.238;2022-12-29T01:14:07;33.78;;;18.08;;
66751;SDS011;53663;42.676;23.238;2022-12-29T01:16:33;31.95;;;18.77;;
66751;SDS011;53663;42.676;23.238;2022-12-29T01:18:59;31.58;;;18.83;;
66751;SDS011;53663;42.676;23.238;2022-12-29T01:21:24;38.58;;;19.23;;
66751;SDS011;53663;42.676;23.238;2022-12-29T01:23:50;33.03;;;18.73;;
66751;SDS011;53663;42.676;23.238;2022-12-29T01:26:17;34.92;;;19.25;;
66751;SDS011;53663;42.676;23.238;2022-12-29T01:28:43;33.60;;;17.98;;
66751;SDS011;53663;42.676;23.238;2022-12-29T01:31:09;41.45;;;19.27;;
66751;SDS011;53663;42.676;23.238;2022-12-29T01:33:36;34.88;;;19.02;;
66751;SDS011;53663;42.676;23.238;2022-12-29T01:36:02;33.08;;;18.70;;
66751;SDS011;53663;42.676;23.238;2022-12-29T01:40:59;35.85;;;18.33;;
66751;SDS011;53663;42.676;23.238;2022-12-29T01:48:50;33.72;;;17.58;;
66751;SDS011;53663;42.676;23.238;2022-12-29T01:51:18;35.55;;;18.08;;
66751;SDS011;53663;42.676;23.238;2022-12-29T01:53:45;33.92;;;18.00;;
66751;SDS011;53663;42.676;23.238;2022-12-29T01:56:12;34.50;;;19.88;;
66751;SDS011;53663;42.676;23.238;2022-12-29T01:58:44;33.55;;;19.63;;
66751;SDS011;53663;42.676;23.238;2022-12-29T02:01:15;35.83;;;19.52;;
66751;SDS011;53663;42.676;23.238;2022-12-29T02:03:42;43.72;;;21.45;;
66751;SDS011;53663;42.676;23.238;2022-12-29T02:06:12;40.22;;;21.10;;
66751;SDS011;53663;42.676;23.238;2022-12-29T02:08:42;39.67;;;22.90;;
66751;SDS011;53663;42.676;23.238;2022-12-29T02:11:11;34.25;;;20.95;;
66751;SDS011;53663;42.676;23.238;2022-12-29T02:13:37;40.95;;;21.38;;
66751;SDS011;53663;42.676;23.238;2022-12-29T02:16:26;38.33;;;20.77;;
66751;SDS011;53663;42.676;23.238;2022-12-29T02:30:08;41.10;;;20.10;;
66751;SDS011;53663;42.676;23.238;2022-12-29T02:35:14;34.50;;;19.17;;
66751;SDS011;53663;42.676;23.238;2022-12-29T02:41:27;35.72;;;18.63;;
66751;SDS011;53663;42.676;23.238;2022-12-29T02:43:37;35.45;;;17.75;;
66751;SDS011;53663;42.676;23.238;2022-12-29T02:46:19;34.20;;;17.88;;
66751;SDS011;53663;42.676;23.238;2022-12-29T02:51:51;31.55;;;17.60;;
66751;SDS011;53663;42.676;23.238;2022-12-29T02:54:22;30.70;;;17.95;;
66751;SDS011;53663;42.676;23.238;2022-12-29T02:57:11;32.05;;;17.85;;
66751;SDS011;53663;42.676;23.238;2022-12-29T02:59:39;28.60;;;17.60;;
66751;SDS011;53663;42.676;23.238;2022-12-29T03:13:23;31.42;;;18.33;;
66751;SDS011;53663;42.676;23.238;2022-12-29T03:16:24;32.25;;;18.15;;
66751;SDS011;53663;42.676;23.238;2022-12-29T03:21:44;30.48;;;18.23;;
66751;SDS011;53663;42.676;23.238;2022-12-29T03:24:39;34.08;;;17.77;;
66751;SDS011;53663;42.676;23.238;2022-12-29T03:27:10;28.60;;;17.30;;
66751;SDS011;53663;42.676;23.238;2022-12-29T03:29:42;28.15;;;16.85;;
66751;SDS011;53663;42.676;23.238;2022-12-29T03:32:13;33.28;;;18.00;;
66751;SDS011;53663;42.676;23.238;2022-12-29T03:34:40;31.95;;;17.75;;
66751;SDS011;53663;42.676;23.238;2022-12-29T03:37:11;28.63;;;17.35;;
66751;SDS011;53663;42.676;23.238;2022-12-29T03:39:39;29.17;;;16.55;;
66751;SDS011;53663;42.676;23.238;2022-12-29T03:42:09;27.70;;;16.98;;
66751;SDS011;53663;42.676;23.238;2022-12-29T03:44:39;30.25;;;16.73;;
66751;SDS011;53663;42.676;23.238;2022-12-29T03:47:08;25.13;;;15.88;;
66751;SDS011;53663;42.676;23.238;2022-12-29T03:49:35;32.15;;;17.17;;
66751;SDS011;53663;42.676;23.238;2022-12-29T03:52:03;31.00;;;16.90;;
66751;SDS011;53663;42.676;23.238;2022-12-29T03:54:29;29.13;;;17.42;;
66751;SDS011;53663;42.676;23.238;2022-12-29T03:56:55;33.03;;;18.05;;
66751;SDS011;53663;42.676;23.238;2022-12-29T03:59:32;31.95;;;19.42;;
66751;SDS011;53663;42.676;23.238;2022-12-29T04:01:57;36.40;;;19.25;;
66751;SDS011;53663;42.676;23.238;2022-12-29T04:04:23;30.17;;;18.42;;
66751;SDS011;53663;42.676;23.238;2022-12-29T04:06:49;31.15;;;18.25;;
66751;SDS011;53663;42.676;23.238;2022-12-29T04:09:15;35.72;;;17.90;;
66751;SDS011;53663;42.676;23.238;2022-12-29T04:11:44;29.35;;;18.38;;
66751;SDS011;53663;42.676;23.238;2022-12-29T04:14:09;33.42;;;18.40;;
66751;SDS011;53663;42.676;23.238;2022-12-29T04:16:35;31.63;;;18.88;;
66751;SDS011;53663;42.676;23.238;2022-12-29T04:19:02;35.55;;;19.48;;
66751;SDS011;53663;42.676;23.238;2022-12-29T04:21:28;31.77;;;18.83;;
66751;SDS011;53663;42.676;23.238;2022-12-29T04:23:53;35.25;;;19.05;;
66751;SDS011;53663;42.676;23.238;2022-12-29T04:26:19;33.95;;;19.52;;
66751;SDS011;53663;42.676;23.238;2022-12-29T04:29:02;34.28;;;18.73;;
66751;SDS011;53663;42.676;23.238;2022-12-29T04:32:00;39.00;;;19.08;;
66751;SDS011;53663;42.676;23.238;2022-12-29T04:34:28;34.75;;;18.73;;
66751;SDS011;53663;42.676;23.238;2022-12-29T04:36:53;34.08;;;18.85;;
66751;SDS011;53663;42.676;23.238;2022-12-29T04:39:19;30.88;;;18.27;;
66751;SDS011;53663;42.676;23.238;2022-12-29T04:41:44;43.55;;;24.13;;
66751;SDS011;53663;42.676;23.238;2022-12-29T04:44:15;33.08;;;20.85;;
66751;SDS011;53663;42.676;23.238;2022-12-29T04:47:15;30.95;;;18.20;;
66751;SDS011;53663;42.676;23.238;2022-12-29T04:49:46;34.45;;;18.70;;
66751;SDS011;53663;42.676;23.238;2022-12-29T04:52:36;36.60;;;19.92;;
66751;SDS011;53663;42.676;23.238;2022-12-29T04:55:02;32.30;;;20.58;;
66751;SDS011;53663;42.676;23.238;2022-12-29T04:57:28;35.60;;;21.40;;
66751;SDS011;53663;42.676;23.238;2022-12-29T04:59:57;39.45;;;22.05;;
66751;SDS011;53663;42.676;23.238;2022-12-29T05:02:23;41.83;;;22.20;;
66751;SDS011;53663;42.676;23.238;2022-12-29T05:04:49;37.92;;;21.73;;
66751;SDS011;53663;42.676;23.238;2022-12-29T05:07:15;37.42;;;22.45;;
66751;SDS011;53663;42.676;23.238;2022-12-29T05:09:42;41.85;;;23.23;;
66751;SDS011;53663;42.676;23.238;2022-12-29T05:12:09;32.80;;;20.58;;
66751;SDS011;53663;42.676;23.238;2022-12-29T05:14:39;40.65;;;21.58;;
66751;SDS011;53663;42.676;23.238;2022-12-29T05:17:06;33.20;;;19.98;;
66751;SDS011;53663;42.676;23.238;2022-12-29T05:19:31;36.55;;;20.80;;
66751;SDS011;53663;42.676;23.238;2022-12-29T05:21:57;39.58;;;21.35;;
66751;SDS011;53663;42.676;23.238;2022-12-29T05:24:23;33.22;;;19.55;;
66751;SDS011;53663;42.676;23.238;2022-12-29T05:26:51;35.47;;;20.90;;
66751;SDS011;53663;42.676;23.238;2022-12-29T05:29:32;43.55;;;23.35;;
66751;SDS011;53663;42.676;23.238;2022-12-29T05:31:57;34.65;;;20.23;;
66751;SDS011;53663;42.676;23.238;2022-12-29T05:34:23;33.80;;;18.67;;
66751;SDS011;53663;42.676;23.238;2022-12-29T05:36:48;31.48;;;18.30;;
66751;SDS011;53663;42.676;23.238;2022-12-29T05:39:14;32.67;;;19.90;;
66751;SDS011;53663;42.676;23.238;2022-12-29T05:41:42;33.63;;;19.83;;
66751;SDS011;53663;42.676;23.238;2022-12-29T05:44:25;33.55;;;19.17;;
66751;SDS011;53663;42.676;23.238;2022-12-29T05:47:29;32.35;;;19.02;;
66751;SDS011;53663;42.676;23.238;2022-12-29T05:50:27;33.22;;;19.67;;
66751;SDS011;53663;42.676;23.238;2022-12-29T05:53:07;44.90;;;19.23;;
66751;SDS011;53663;42.676;23.238;2022-12-29T05:55:32;33.40;;;18.73;;
66751;SDS011;53663;42.676;23.238;2022-12-29T05:57:59;31.30;;;18.60;;
66751;SDS011;53663;42.676;23.238;2022-12-29T06:00:25;30.08;;;19.17;;
66751;SDS011;53663;42.676;23.238;2022-12-29T06:02:51;32.70;;;18.90;;
66751;SDS011;53663;42.676;23.238;2022-12-29T06:05:17;34.85;;;20.63;;
66751;SDS011;53663;42.676;23.238;2022-12-29T06:07:42;39.05;;;19.90;;
66751;SDS011;53663;42.676;23.238;2022-12-29T06:10:10;35.38;;;18.75;;
66751;SDS011;53663;42.676;23.238;2022-12-29T06:12:43;34.65;;;19.83;;
66751;SDS011;53663;42.676;23.238;2022-12-29T06:15:09;35.25;;;20.30;;
66751;SDS011;53663;42.676;23.238;2022-12-29T06:17:37;33.22;;;19.73;;
66751;SDS011;53663;42.676;23.238;2022-12-29T06:20:03;28.33;;;17.95;;
66751;SDS011;53663;42.676;23.238;2022-12-29T06:22:29;31.23;;;19.05;;
66751;SDS011;53663;42.676;23.238;2022-12-29T06:24:55;30.65;;;18.35;;
66751;SDS011;53663;42.676;23.238;2022-12-29T06:27:21;30.58;;;18.17;;
66751;SDS011;53663;42.676;23.238;2022-12-29T06:29:47;29.15;;;16.73;;
66751;SDS011;53663;42.676;23.238;2022-12-29T06:32:12;36.45;;;19.27;;
66751;SDS011;53663;42.676;23.238;2022-12-29T06:34:42;33.15;;;18.33;;
66751;SDS011;53663;42.676;23.238;2022-12-29T06:37:10;28.00;;;16.58;;
66751;SDS011;53663;42.676;23.238;2022-12-29T06:39:36;33.42;;;16.15;;
66751;SDS011;53663;42.676;23.238;2022-12-29T06:42:08;29.30;;;16.67;;
66751;SDS011;53663;42.676;23.238;2022-12-29T06:44:50;29.45;;;17.33;;
66751;SDS011;53663;42.676;23.238;2022-12-29T06:47:16;36.03;;;18.27;;
66751;SDS011;53663;42.676;23.238;2022-12-29T06:49:41;31.25;;;18.38;;
66751;SDS011;53663;42.676;23.238;2022-12-29T06:52:06;29.92;;;16.58;;
66751;SDS011;53663;42.676;23.238;2022-12-29T06:54:32;28.38;;;17.08;;
66751;SDS011;53663;42.676;23.238;2022-12-29T06:56:58;33.05;;;17.40;;
66751;SDS011;53663;42.676;23.238;2022-12-29T06:59:25;26.38;;;16.38;;
66751;SDS011;53663;42.676;23.238;2022-12-29T07:01:51;31.33;;;16.88;;
66751;SDS011;53663;42.676;23.238;2022-12-29T07:04:17;32.63;;;18.25;;
66751;SDS011;53663;42.676;23.238;2022-12-29T07:06:42;35.75;;;18.27;;
66751;SDS011;53663;42.676;23.238;2022-12-29T07:09:08;33.60;;;17.85;;
66751;SDS011;53663;42.676;23.238;2022-12-29T07:11:34;31.10;;;17.55;;
66751;SDS011;53663;42.676;23.238;2022-12-29T07:13:59;31.08;;;17.60;;
66751;SDS011;53663;42.676;23.238;2022-12-29T07:16:25;26.60;;;15.98;;
66751;SDS011;53663;42.676;23.238;2022-12-29T07:18:51;28.08;;;17.05;;
66751;SDS011;53663;42.676;23.238;2022-12-29T07:21:17;28.70;;;15.88;;
66751;SDS011;53663;42.676;23.238;2022-12-29T07:23:43;27.10;;;15.20;;
66751;SDS011;53663;42.676;23.238;2022-12-29T07:26:09;24.52;;;15.75;;
66751;SDS011;53663;42.676;23.238;2022-12-29T07:28:37;27.73;;;16.15;;
66751;SDS011;53663;42.676;23.238;2022-12-29T07:31:03;32.75;;;17.17;;
66751;SDS011;53663;42.676;23.238;2022-12-29T07:33:30;27.60;;;17.00;;
66751;SDS011;53663;42.676;23.238;2022-12-29T07:35:56;30.88;;;16.42;;
66751;SDS011;53663;42.676;23.238;2022-12-29T07:38:23;26.15;;;16.33;;
66751;SDS011;53663;42.676;23.238;2022-12-29T07:40:48;29.33;;;16.23;;
66751;SDS011;53663;42.676;23.238;2022-12-29T07:43:14;28.95;;;15.70;;
66751;SDS011;53663;42.676;23.238;2022-12-29T07:45:47;28.17;;;15.68;;
66751;SDS011;53663;42.676;23.238;2022-12-29T07:48:15;26.00;;;15.93;;
66751;SDS011;53663;42.676;23.238;2022-12-29T07:50:41;26.95;;;16.08;;
66751;SDS011;53663;42.676;23.238;2022-12-29T07:53:06;28.88;;;16.95;;
66751;SDS011;53663;42.676;23.238;2022-12-29T07:55:32;28.80;;;16.95;;
66751;SDS011;53663;42.676;23.238;2022-12-29T07:57:57;26.27;;;15.77;;
66751;SDS011;53663;42.676;23.238;2022-12-29T08:00:23;32.22;;;16.95;;
66751;SDS011;53663;42.676;23.238;2022-12-29T08:02:49;30.02;;;17.27;;
66751;SDS011;53663;42.676;23.238;2022-12-29T08:05:14;32.28;;;17.30;;
66751;SDS011;53663;42.676;23.238;2022-12-29T08:07:42;27.65;;;17.00;;
66751;SDS011;53663;42.676;23.238;2022-12-29T08:10:09;33.80;;;19.50;;
66751;SDS011;53663;42.676;23.238;2022-12-29T08:12:35;30.63;;;18.55;;
66751;SDS011;53663;42.676;23.238;2022-12-29T08:15:02;32.80;;;19.98;;
66751;SDS011;53663;42.676;23.238;2022-12-29T08:17:28;51.47;;;25.85;;
66751;SDS011;53663;42.676;23.238;2022-12-29T08:19:53;50.22;;;23.23;;
66751;SDS011;53663;42.676;23.238;2022-12-29T08:22:19;43.90;;;22.42;;
66751;SDS011;53663;42.676;23.238;2022-12-29T08:24:44;91.60;;;36.33;;
66751;SDS011;53663;42.676;23.238;2022-12-29T08:27:10;121.15;;;45.17;;
66751;SDS011;53663;42.676;23.238;2022-12-29T08:29:35;54.65;;;26.27;;
66751;SDS011;53663;42.676;23.238;2022-12-29T08:32:01;38.67;;;19.77;;
66751;SDS011;53663;42.676;23.238;2022-12-29T08:34:26;30.45;;;18.00;;
66751;SDS011;53663;42.676;23.238;2022-12-29T08:36:52;27.88;;;16.45;;
66751;SDS011;53663;42.676;23.238;2022-12-29T08:39:17;26.98;;;15.30;;
66751;SDS011;53663;42.676;23.238;2022-12-29T08:41:43;30.42;;;15.52;;
66751;SDS011;53663;42.676;23.238;2022-12-29T08:44:08;24.83;;;15.98;;
66751;SDS011;53663;42.676;23.238;2022-12-29T08:46:34;28.98;;;15.98;;
66751;SDS011;53663;42.676;23.238;2022-12-29T08:48:59;25.38;;;16.17;;
66751;SDS011;53663;42.676;23.238;2022-12-29T08:51:25;23.50;;;14.40;;
66751;SDS011;53663;42.676;23.238;2022-12-29T08:53:50;24.17;;;14.20;;
66751;SDS011;53663;42.676;23.238;2022-12-29T08:56:16;22.73;;;14.55;;
66751;SDS011;53663;42.676;23.238;2022-12-29T08:58:47;24.63;;;14.63;;
66751;SDS011;53663;42.676;23.238;2022-12-29T09:01:13;21.42;;;14.18;;
66751;SDS011;53663;42.676;23.238;2022-12-29T09:03:38;23.80;;;13.90;;
66751;SDS011;53663;42.676;23.238;2022-12-29T09:06:04;21.58;;;14.02;;
66751;SDS011;53663;42.676;23.238;2022-12-29T09:08:30;21.70;;;13.38;;
66751;SDS011;53663;42.676;23.238;2022-12-29T09:10:55;24.42;;;14.35;;
66751;SDS011;53663;42.676;23.238;2022-12-29T09:13:30;20.70;;;13.35;;
66751;SDS011;53663;42.676;23.238;2022-12-29T09:15:58;20.15;;;12.90;;
66751;SDS011;53663;42.676;23.238;2022-12-29T09:18:24;26.33;;;15.02;;
66751;SDS011;53663;42.676;23.238;2022-12-29T09:20:55;23.33;;;14.48;;
66751;SDS011;53663;42.676;23.238;2022-12-29T09:23:25;27.17;;;14.30;;
66751;SDS011;53663;42.676;23.238;2022-12-29T09:25:51;25.85;;;14.43;;
66751;SDS011;53663;42.676;23.238;2022-12-29T09:28:17;19.35;;;13.40;;
66751;SDS011;53663;42.676;23.238;2022-12-29T09:30:43;21.83;;;13.30;;
66751;SDS011;53663;42.676;23.238;2022-12-29T09:33:08;22.70;;;14.00;;
66751;SDS011;53663;42.676;23.238;2022-12-29T09:35:34;26.15;;;13.50;;
66751;SDS011;53663;42.676;23.238;2022-12-29T09:37:59;22.38;;;12.63;;
66751;SDS011;53663;42.676;23.238;2022-12-29T09:40:34;20.30;;;12.90;;
66751;SDS011;53663;42.676;23.238;2022-12-29T09:48:41;20.88;;;12.55;;
66751;SDS011;53663;42.676;23.238;2022-12-29T09:51:13;19.92;;;12.48;;
66751;SDS011;53663;42.676;23.238;2022-12-29T09:56:17;19.85;;;13.27;;
66751;SDS011;53663;42.676;23.238;2022-12-29T10:01:29;18.60;;;13.43;;
66751;SDS011;53663;42.676;23.238;2022-12-29T10:03:58;26.55;;;13.75;;
66751;SDS011;53663;42.676;23.238;2022-12-29T10:07:08;21.02;;;13.15;;
66751;SDS011;53663;42.676;23.238;2022-12-29T10:18:03;19.95;;;12.55;;
66751;SDS011;53663;42.676;23.238;2022-12-29T10:23:53;23.20;;;14.38;;
66751;SDS011;53663;42.676;23.238;2022-12-29T10:26:19;28.88;;;14.52;;
66751;SDS011;53663;42.676;23.238;2022-12-29T10:28:49;24.20;;;14.73;;
66751;SDS011;53663;42.676;23.238;2022-12-29T10:31:21;27.77;;;14.95;;
66751;SDS011;53663;42.676;23.238;2022-12-29T10:33:49;23.27;;;14.27;;
66751;SDS011;53663;42.676;23.238;2022-12-29T10:36:21;31.67;;;16.38;;
66751;SDS011;53663;42.676;23.238;2022-12-29T10:44:29;27.83;;;15.60;;
66751;SDS011;53663;42.676;23.238;2022-12-29T10:46:58;27.98;;;15.10;;
66751;SDS011;53663;42.676;23.238;2022-12-29T10:49:26;27.25;;;17.50;;
66751;SDS011;53663;42.676;23.238;2022-12-29T10:51:57;47.00;;;17.75;;
66751;SDS011;53663;42.676;23.238;2022-12-29T10:54:26;34.70;;;17.65;;
66751;SDS011;53663;42.676;23.238;2022-12-29T10:57:11;29.45;;;16.55;;
66751;SDS011;53663;42.676;23.238;2022-12-29T10:59:46;28.50;;;15.48;;
66751;SDS011;53663;42.676;23.238;2022-12-29T11:05:27;25.38;;;15.93;;
66751;SDS011;53663;42.676;23.238;2022-12-29T11:07:49;49.33;;;25.17;;
66751;SDS011;53663;42.676;23.238;2022-12-29T11:13:02;30.63;;;17.55;;
66751;SDS011;53663;42.676;23.238;2022-12-29T11:15:53;28.55;;;16.13;;
66751;SDS011;53663;42.676;23.238;2022-12-29T11:21:25;34.45;;;21.58;;
66751;SDS011;53663;42.676;23.238;2022-12-29T11:26:24;28.95;;;16.42;;
66751;SDS011;53663;42.676;23.238;2022-12-29T11:29:38;28.30;;;15.15;;
66751;SDS011;53663;42.676;23.238;2022-12-29T11:31:47;26.92;;;15.35;;
66751;SDS011;53663;42.676;23.238;2022-12-29T11:34:19;33.22;;;16.05;;
66751;SDS011;53663;42.676;23.238;2022-12-29T11:36:46;28.10;;;15.55;;
66751;SDS011;53663;42.676;23.238;2022-12-29T11:39:26;27.65;;;15.65;;
66751;SDS011;53663;42.676;23.238;2022-12-29T11:42:16;35.78;;;16.17;;
66751;SDS011;53663;42.676;23.238;2022-12-29T11:44:45;30.70;;;15.50;;
66751;SDS011;53663;42.676;23.238;2022-12-29T11:47:26;36.05;;;16.88;;
66751;SDS011;53663;42.676;23.238;2022-12-29T11:49:59;27.50;;;16.48;;
66751;SDS011;53663;42.676;23.238;2022-12-29T11:52:28;30.50;;;15.93;;
66751;SDS011;53663;42.676;23.238;2022-12-29T11:54:58;30.02;;;16.17;;
66751;SDS011;53663;42.676;23.238;2022-12-29T11:57:26;30.75;;;15.85;;
66751;SDS011;53663;42.676;23.238;2022-12-29T11:59:53;30.63;;;16.33;;
66751;SDS011;53663;42.676;23.238;2022-12-29T12:04:47;32.38;;;18.02;;
66751;SDS011;53663;42.676;23.238;2022-12-29T12:07:33;33.00;;;17.88;;
66751;SDS011;53663;42.676;23.238;2022-12-29T12:10:04;34.00;;;18.50;;
66751;SDS011;53663;42.676;23.238;2022-12-29T12:15:15;43.40;;;23.02;;
66751;SDS011;53663;42.676;23.238;2022-12-29T12:20:50;51.15;;;25.17;;
66751;SDS011;53663;42.676;23.238;2022-12-29T12:23:22;40.30;;;22.08;;
66751;SDS011;53663;42.676;23.238;2022-12-29T12:31:16;38.90;;;21.90;;
66751;SDS011;53663;42.676;23.238;2022-12-29T12:33:50;35.88;;;19.83;;
66751;SDS011;53663;42.676;23.238;2022-12-29T12:46:52;33.58;;;20.10;;
66751;SDS011;53663;42.676;23.238;2022-12-29T13:00:45;35.63;;;20.55;;
66751;SDS011;53663;42.676;23.238;2022-12-29T13:14:08;35.28;;;17.70;;
66751;SDS011;53663;42.676;23.238;2022-12-29T13:17:05;36.33;;;18.00;;
66751;SDS011;53663;42.676;23.238;2022-12-29T13:27:48;37.30;;;20.27;;
66751;SDS011;53663;42.676;23.238;2022-12-29T13:30:10;45.28;;;21.88;;
66751;SDS011;53663;42.676;23.238;2022-12-29T13:35:49;40.53;;;21.90;;
66751;SDS011;53663;42.676;23.238;2022-12-29T13:38:19;45.35;;;23.92;;
66751;SDS011;53663;42.676;23.238;2022-12-29T13:40:54;46.00;;;26.42;;
66751;SDS011;53663;42.676;23.238;2022-12-29T13:43:22;50.08;;;26.23;;
66751;SDS011;53663;42.676;23.238;2022-12-29T13:45:50;53.47;;;26.98;;
66751;SDS011;53663;42.676;23.238;2022-12-29T13:48:24;47.67;;;25.58;;
66751;SDS011;53663;42.676;23.238;2022-12-29T13:51:02;49.83;;;24.08;;
66751;SDS011;53663;42.676;23.238;2022-12-29T13:56:13;42.75;;;23.42;;
66751;SDS011;53663;42.676;23.238;2022-12-29T13:58:57;44.47;;;24.15;;
66751;SDS011;53663;42.676;23.238;2022-12-29T14:01:43;52.47;;;24.65;;
66751;SDS011;53663;42.676;23.238;2022-12-29T14:04:21;55.35;;;23.88;;
66751;SDS011;53663;42.676;23.238;2022-12-29T14:06:58;45.75;;;23.02;;
66751;SDS011;53663;42.676;23.238;2022-12-29T14:09:40;40.83;;;23.25;;
66751;SDS011;53663;42.676;23.238;2022-12-29T14:14:52;48.58;;;23.42;;
66751;SDS011;53663;42.676;23.238;2022-12-29T14:17:20;48.40;;;22.75;;
66751;SDS011;53663;42.676;23.238;2022-12-29T14:19:46;53.20;;;23.48;;
66751;SDS011;53663;42.676;23.238;2022-12-29T14:22:22;49.38;;;24.05;;
66751;SDS011;53663;42.676;23.238;2022-12-29T14:24:49;41.08;;;22.00;;
66751;SDS011;53663;42.676;23.238;2022-12-29T14:34:45;40.53;;;19.88;;
66751;SDS011;53663;42.676;23.238;2022-12-29T14:37:22;33.78;;;19.15;;
66751;SDS011;53663;42.676;23.238;2022-12-29T14:42:39;44.38;;;18.05;;
66751;SDS011;53663;42.676;23.238;2022-12-29T14:47:42;41.92;;;18.75;;
66751;SDS011;53663;42.676;23.238;2022-12-29T14:53:04;43.30;;;21.15;;
66751;SDS011;53663;42.676;23.238;2022-12-29T14:55:41;44.78;;;21.95;;
66751;SDS011;53663;42.676;23.238;2022-12-29T14:58:31;46.78;;;22.88;;
66751;SDS011;53663;42.676;23.238;2022-12-29T15:01:02;51.78;;;23.63;;
66751;SDS011;53663;42.676;23.238;2022-12-29T15:03:28;44.88;;;23.55;;
66751;SDS011;53663;42.676;23.238;2022-12-29T15:08:32;42.88;;;21.25;;
66751;SDS011;53663;42.676;23.238;2022-12-29T15:11:15;43.35;;;22.00;;
66751;SDS011;53663;42.676;23.238;2022-12-29T15:13:47;59.55;;;26.75;;
66751;SDS011;53663;42.676;23.238;2022-12-29T15:16:20;64.85;;;33.13;;
66751;SDS011;53663;42.676;23.238;2022-12-29T15:18:54;62.83;;;32.55;;
66751;SDS011;53663;42.676;23.238;2022-12-29T15:21:25;82.50;;;36.40;;
66751;SDS011;53663;42.676;23.238;2022-12-29T15:23:52;112.13;;;49.50;;
66751;SDS011;53663;42.676;23.238;2022-12-29T15:26:18;100.35;;;47.15;;
66751;SDS011;53663;42.676;23.238;2022-12-29T15:28:50;88.15;;;44.08;;
66751;SDS011;53663;42.676;23.238;2022-12-29T15:31:23;70.95;;;35.15;;
66751;SDS011;53663;42.676;23.238;2022-12-29T15:33:50;83.10;;;38.90;;
66751;SDS011;53663;42.676;23.238;2022-12-29T15:36:21;72.90;;;36.50;;
66751;SDS011;53663;42.676;23.238;2022-12-29T15:38:49;96.82;;;43.70;;
66751;SDS011;53663;42.676;23.238;2022-12-29T15:44:23;80.28;;;35.22;;
66751;SDS011;53663;42.676;23.238;2022-12-29T15:47:04;70.40;;;33.03;;
66751;SDS011;53663;42.676;23.238;2022-12-29T15:49:31;68.40;;;33.20;;
66751;SDS011;53663;42.676;23.238;2022-12-29T15:51:57;61.65;;;32.10;;
66751;SDS011;53663;42.676;23.238;2022-12-29T15:54:23;70.97;;;32.63;;
66751;SDS011;53663;42.676;23.238;2022-12-29T15:56:51;67.28;;;30.80;;
66751;SDS011;53663;42.676;23.238;2022-12-29T15:59:27;64.80;;;30.88;;
66751;SDS011;53663;42.676;23.238;2022-12-29T16:01:54;62.63;;;33.58;;
66751;SDS011;53663;42.676;23.238;2022-12-29T16:04:20;105.57;;;44.97;;
66751;SDS011;53663;42.676;23.238;2022-12-29T16:09:40;90.32;;;40.90;;
66751;SDS011;53663;42.676;23.238;2022-12-29T16:12:16;82.82;;;37.05;;
66751;SDS011;53663;42.676;23.238;2022-12-29T16:14:46;57.15;;;29.27;;
66751;SDS011;53663;42.676;23.238;2022-12-29T16:17:17;69.70;;;33.15;;
66751;SDS011;53663;42.676;23.238;2022-12-29T16:24:49;71.00;;;36.65;;
66751;SDS011;53663;42.676;23.238;2022-12-29T16:30:17;72.88;;;30.95;;
66751;SDS011;53663;42.676;23.238;2022-12-29T16:32:46;57.22;;;30.92;;
66751;SDS011;53663;42.676;23.238;2022-12-29T16:35:17;56.20;;;28.10;;
66751;SDS011;53663;42.676;23.238;2022-12-29T16:43:23;50.72;;;24.95;;
66751;SDS011;53663;42.676;23.238;2022-12-29T16:46:16;51.65;;;25.55;;
66751;SDS011;53663;42.676;23.238;2022-12-29T16:48:53;65.80;;;28.42;;
66751;SDS011;53663;42.676;23.238;2022-12-29T16:54:00;64.35;;;29.15;;
66751;SDS011;53663;42.676;23.238;2022-12-29T16:56:27;54.05;;;28.63;;
66751;SDS011;53663;42.676;23.238;2022-12-29T16:59:06;63.83;;;30.67;;
66751;SDS011;53663;42.676;23.238;2022-12-29T17:01:42;79.10;;;34.20;;
66751;SDS011;53663;42.676;23.238;2022-12-29T17:04:09;65.32;;;31.02;;
66751;SDS011;53663;42.676;23.238;2022-12-29T17:06:36;60.33;;;29.58;;
66751;SDS011;53663;42.676;23.238;2022-12-29T17:09:02;60.42;;;30.58;;
66751;SDS011;53663;42.676;23.238;2022-12-29T17:11:29;71.57;;;32.65;;
66751;SDS011;53663;42.676;23.238;2022-12-29T17:17:04;63.78;;;30.08;;
66751;SDS011;53663;42.676;23.238;2022-12-29T17:19:36;71.10;;;30.50;;
66751;SDS011;53663;42.676;23.238;2022-12-29T17:22:04;59.85;;;29.90;;
66751;SDS011;53663;42.676;23.238;2022-12-29T17:24:36;58.50;;;30.60;;
66751;SDS011;53663;42.676;23.238;2022-12-29T17:27:02;69.90;;;31.77;;
66751;SDS011;53663;42.676;23.238;2022-12-29T17:29:29;57.33;;;30.45;;
66751;SDS011;53663;42.676;23.238;2022-12-29T17:32:01;60.28;;;30.35;;
66751;SDS011;53663;42.676;23.238;2022-12-29T17:34:28;61.13;;;30.05;;
66751;SDS011;53663;42.676;23.238;2022-12-29T17:36:54;54.85;;;29.30;;